Time;durP1;ratioP1;P1;durP2;ratioP2;P2;SDS_P1;SDS_P2;PMS_P1;PMS_P2;Temp;Humidity;BMP_temperature;BMP_pressure;BME280_temperature;BME280_humidity;BME280_pressure;Samples;Min_cycle;Max_cycle;Signal;HPM_P1;HPM_P2
2023/03/10 00:01:30;;;;;;;2.33;2.03;;;;;;;15.28;53.50;93878.78;4989865;28;20195;-53
2023/03/10 00:03:59;;;;;;;3.40;2.33;;;;;;;15.28;53.53;93895.97;4989684;28;20212;-52
2023/03/10 00:06:28;;;;;;;3.03;2.57;;;;;;;15.26;53.47;93895.38;4989204;28;20185;-53
2023/03/10 00:08:58;;;;;;;2.83;2.20;;;;;;;15.22;53.70;93894.94;4970442;28;20197;-50
2023/03/10 00:11:25;;;;;;;2.90;2.60;;;;;;;15.15;53.60;93893.28;4968614;28;20252;-49
2023/03/10 00:13:52;;;;;;;3.67;2.33;;;;;;;15.14;53.60;93894.28;4969557;28;20232;-51
2023/03/10 00:16:21;;;;;;;2.90;2.40;;;;;;;15.15;53.85;93901.81;4970357;28;20190;-50
2023/03/10 00:18:48;;;;;;;4.10;2.50;;;;;;;15.13;53.81;93898.63;4970569;28;20199;-54
2023/03/10 00:21:16;;;;;;;3.37;2.27;;;;;;;15.11;53.88;93895.47;4970401;28;20201;-52
2023/03/10 00:23:43;;;;;;;2.53;2.33;;;;;;;15.08;53.81;93892.47;4989762;28;20221;-53
2023/03/10 00:26:13;;;;;;;3.73;2.50;;;;;;;15.09;54.06;93896.63;4989157;28;20607;-52
2023/03/10 00:28:40;;;;;;;3.10;2.30;;;;;;;15.06;54.08;93897.78;4989535;28;20197;-50
2023/03/10 00:31:11;;;;;;;2.50;2.30;;;;;;;15.04;54.25;93900.53;4989394;28;20181;-52
2023/03/10 00:33:38;;;;;;;2.37;2.17;;;;;;;15.03;54.02;93901.53;4989507;28;20280;-53
2023/03/10 00:36:07;;;;;;;2.80;2.33;;;;;;;15.01;54.27;93905.25;4988866;28;20186;-53
2023/03/10 00:38:34;;;;;;;2.70;2.40;;;;;;;15.00;54.04;93906.25;4989240;28;20201;-52
2023/03/10 00:41:02;;;;;;;2.47;2.20;;;;;;;14.96;54.22;93900.66;4989355;28;20575;-53
2023/03/10 00:43:31;;;;;;;2.40;2.20;;;;;;;14.96;54.18;93892.16;4989535;28;20195;-50
2023/03/10 00:45:58;;;;;;;3.33;2.10;;;;;;;14.91;54.38;93884.19;4989213;28;20177;-53
2023/03/10 00:48:25;;;;;;;2.50;2.30;;;;;;;14.91;54.32;93891.91;4989251;28;20196;-50
2023/03/10 00:50:51;;;;;;;2.70;2.50;;;;;;;14.85;54.49;93877.19;4989066;28;20181;-54
2023/03/10 00:53:18;;;;;;;2.93;2.13;;;;;;;14.86;54.56;93889.88;4989007;28;20244;-53
2023/03/10 00:55:45;;;;;;;3.33;2.40;;;;;;;14.84;54.43;93884.09;4989065;28;20225;-53
2023/03/10 00:58:12;;;;;;;3.20;2.40;;;;;;;14.82;54.40;93880.16;4989092;28;20201;-51
2023/03/10 01:00:40;;;;;;;2.93;2.60;;;;;;;14.77;54.53;93875.53;4989172;28;20193;-49
2023/03/10 01:03:06;;;;;;;3.47;2.20;;;;;;;14.78;54.70;93884.84;4988265;28;20287;-51
2023/03/10 01:05:33;;;;;;;3.77;2.30;;;;;;;14.75;54.64;93886.00;4988468;28;20740;-55
2023/03/10 01:08:00;;;;;;;2.30;2.10;;;;;;;14.72;54.80;93885.56;4989201;28;20193;-53
2023/03/10 01:10:27;;;;;;;3.77;2.23;;;;;;;14.70;54.93;93902.97;4989876;28;20735;-52
2023/03/10 01:12:54;;;;;;;3.20;2.20;;;;;;;14.68;54.88;93894.63;4992644;28;20216;-53
2023/03/10 01:15:20;;;;;;;3.30;2.53;;;;;;;14.65;54.83;93898.38;4992760;28;20190;-48
2023/03/10 01:17:48;;;;;;;4.80;2.50;;;;;;;14.63;54.98;93892.59;4992666;28;20197;-49
2023/03/10 01:20:17;;;;;;;2.30;2.10;;;;;;;14.61;54.96;93879.13;4992287;28;20672;-54
2023/03/10 01:22:44;;;;;;;2.30;2.20;;;;;;;14.60;55.02;93884.47;4992658;28;20215;-52
2023/03/10 01:25:14;;;;;;;2.57;2.20;;;;;;;14.55;54.98;93878.09;4992047;28;20209;-50
2023/03/10 01:27:42;;;;;;;2.40;2.13;;;;;;;14.54;55.10;93880.84;4991913;28;20251;-53
2023/03/10 01:30:10;;;;;;;4.37;2.37;;;;;;;14.51;55.09;93884.59;4991072;28;20221;-49
2023/03/10 01:32:37;;;;;;;2.57;2.10;;;;;;;14.38;55.31;93855.28;4992305;28;20199;-49
2023/03/10 01:35:06;;;;;;;3.20;2.37;;;;;;;14.47;55.21;93880.75;4991915;28;20200;-52
2023/03/10 01:37:33;;;;;;;2.47;2.20;;;;;;;14.45;55.08;93882.69;4992451;28;20192;-55
2023/03/10 01:40:00;;;;;;;2.33;2.13;;;;;;;14.44;55.44;93877.72;4992128;28;20199;-50
2023/03/10 01:42:27;;;;;;;2.40;2.20;;;;;;;14.41;55.54;93878.88;4992115;28;20598;-52
2023/03/10 01:45:09;;;;;;;2.50;2.30;;;;;;;14.40;55.53;93881.66;4991714;28;20276;-53
2023/03/10 01:47:36;;;;;;;2.60;2.40;;;;;;;14.31;55.39;93881.75;4991950;28;20192;-49
2023/03/10 01:50:06;;;;;;;2.37;2.20;;;;;;;14.34;55.57;93885.75;4991419;28;20189;-50
2023/03/10 01:52:35;;;;;;;2.57;2.37;;;;;;;14.33;55.60;93889.28;4991180;28;20197;-53
2023/03/10 01:55:06;;;;;;;2.07;1.87;;;;;;;14.31;55.58;93898.97;4990123;28;20235;-49
2023/03/10 01:57:39;;;;;;;2.37;2.13;;;;;;;14.28;55.73;93900.09;4991638;28;20238;-52
2023/03/10 02:00:11;;;;;;;3.57;2.13;;;;;;;14.26;55.88;93894.34;4991385;28;20210;-49
2023/03/10 02:02:42;;;;;;;2.57;2.37;;;;;;;14.24;55.93;93900.63;4991621;28;20610;-53
2023/03/10 02:05:12;;;;;;;2.40;2.20;;;;;;;14.19;55.78;93901.19;4991180;28;20293;-54
2023/03/10 02:07:40;;;;;;;2.47;2.27;;;;;;;14.21;55.73;93896.66;4991904;28;20200;-55
2023/03/10 02:10:08;;;;;;;2.83;2.30;;;;;;;14.09;55.75;93876.75;4991643;28;20185;-51
2023/03/10 02:12:35;;;;;;;2.30;2.10;;;;;;;14.18;55.99;93889.31;4991751;28;20193;-52
2023/03/10 02:15:03;;;;;;;2.47;2.27;;;;;;;14.10;55.91;93881.69;4991140;28;20216;-48
2023/03/10 02:17:30;;;;;;;2.40;2.20;;;;;;;14.16;55.99;93893.84;4991120;28;20193;-54
2023/03/10 02:20:09;;;;;;;2.90;2.40;;;;;;;14.16;56.05;93896.41;4991650;28;20190;-50
2023/03/10 02:22:38;;;;;;;3.33;2.30;;;;;;;14.15;56.09;93889.66;4990731;28;20735;-48
2023/03/10 02:25:15;;;;;;;2.47;2.27;;;;;;;14.14;56.13;93884.69;4991492;28;20221;-50
2023/03/10 02:27:43;;;;;;;2.10;2.00;;;;;;;14.13;56.30;93891.63;4991496;28;20200;-51
2023/03/10 02:30:14;;;;;;;2.20;2.00;;;;;;;14.14;56.02;93895.00;4990833;28;20224;-52
2023/03/10 02:32:44;;;;;;;2.57;2.30;;;;;;;14.12;55.87;93895.19;4991041;28;20200;-49
2023/03/10 02:35:12;;;;;;;2.13;1.93;;;;;;;14.14;56.24;93900.94;4991043;28;20203;-47
2023/03/10 02:37:39;;;;;;;2.50;2.20;;;;;;;14.13;56.13;93889.06;4991475;28;20307;-49
2023/03/10 02:40:31;;;;;;;2.47;2.27;;;;;;;14.15;56.14;93883.72;4990831;28;20543;-51
2023/03/10 02:43:00;;;;;;;2.23;2.03;;;;;;;14.17;56.05;93898.00;4990776;28;20197;-50
2023/03/10 02:45:29;;;;;;;2.30;2.10;;;;;;;14.16;56.13;93887.88;4990739;28;20272;-49
2023/03/10 02:47:55;;;;;;;2.73;2.07;;;;;;;14.10;56.43;93871.41;4990835;28;20703;-51
2023/03/10 02:50:25;;;;;;;2.23;2.10;;;;;;;14.19;56.29;93882.38;4991084;28;20197;-51
2023/03/10 02:52:59;;;;;;;2.13;1.93;;;;;;;14.20;56.28;93891.69;4991103;28;20201;-46
2023/03/10 02:55:26;;;;;;;2.97;2.40;;;;;;;14.19;56.25;93888.31;4990148;28;20220;-52
2023/03/10 02:57:53;;;;;;;2.60;2.40;;;;;;;14.18;56.23;93881.59;4991087;28;20276;-47
2023/03/10 03:00:22;;;;;;;2.40;2.20;;;;;;;14.20;56.37;93889.13;4990560;28;20193;-49
2023/03/10 03:02:48;;;;;;;4.53;2.73;;;;;;;14.17;56.50;93881.78;4990576;28;20660;-50
2023/03/10 03:05:15;;;;;;;2.57;2.30;;;;;;;14.20;56.27;93884.78;4990471;28;20455;-47
2023/03/10 03:07:42;;;;;;;2.40;2.10;;;;;;;14.27;56.41;93895.16;4990912;28;20193;-49
2023/03/10 03:10:10;;;;;;;2.30;2.10;;;;;;;14.30;56.42;93894.78;4989625;28;20200;-47
2023/03/10 03:12:37;;;;;;;3.23;2.10;;;;;;;14.31;56.25;93888.66;4990671;28;20197;-46
2023/03/10 03:15:05;;;;;;;2.37;2.17;;;;;;;14.32;56.25;93882.53;4990059;28;20204;-50
2023/03/10 03:17:34;;;;;;;2.87;2.50;;;;;;;14.33;56.27;93886.69;4990621;28;20188;-49
2023/03/10 03:20:01;;;;;;;2.40;2.20;;;;;;;14.36;56.10;93885.56;4990107;28;20692;-52
2023/03/10 03:22:27;;;;;;;2.77;2.50;;;;;;;14.40;56.33;93886.78;4990382;28;20196;-48
2023/03/10 03:24:54;;;;;;;2.50;2.27;;;;;;;14.40;56.40;93886.78;4989974;28;20209;-49
2023/03/10 03:27:21;;;;;;;2.73;2.53;;;;;;;14.40;56.35;93879.06;4990324;28;20204;-48
2023/03/10 03:29:48;;;;;;;2.73;2.47;;;;;;;14.41;56.38;93878.09;4990249;28;20251;-51
2023/03/10 03:32:14;;;;;;;3.50;2.23;;;;;;;14.39;56.34;93868.00;4990125;28;20201;-52
2023/03/10 03:34:43;;;;;;;3.00;2.70;;;;;;;14.41;56.45;93867.81;4989851;28;20204;-51
2023/03/10 03:37:09;;;;;;;2.50;2.30;;;;;;;14.40;56.45;93872.16;4989919;28;20663;-50
2023/03/10 03:39:36;;;;;;;2.77;2.23;;;;;;;14.39;56.48;93872.34;4989744;28;20193;-54
2023/03/10 03:42:03;;;;;;;2.67;2.47;;;;;;;14.39;56.39;93874.91;4989728;28;20189;-54
2023/03/10 03:44:30;;;;;;;3.63;2.23;;;;;;;14.40;56.63;93881.66;4989927;28;20569;-52
2023/03/10 03:46:57;;;;;;;2.87;2.40;;;;;;;14.40;56.56;93884.22;4989719;28;20185;-51
2023/03/10 03:49:23;;;;;;;3.30;2.30;;;;;;;14.39;56.70;93895.50;4989980;28;20251;-54
2023/03/10 03:51:52;;;;;;;2.80;2.60;;;;;;;14.41;56.64;93885.81;4989574;28;20208;-51
2023/03/10 03:54:19;;;;;;;2.70;2.50;;;;;;;14.41;56.50;93881.44;4989172;28;20188;-52
2023/03/10 03:56:46;;;;;;;3.10;2.50;;;;;;;14.42;56.55;93874.53;4989965;28;20251;-52
2023/03/10 03:59:12;;;;;;;2.50;2.30;;;;;;;14.43;56.51;93884.66;4989477;28;20193;-53
2023/03/10 04:01:39;;;;;;;4.77;2.77;;;;;;;14.44;56.74;93888.03;4989641;28;20674;-46
2023/03/10 04:04:06;;;;;;;2.57;2.37;;;;;;;14.45;56.50;93892.19;4989462;28;20251;-48
2023/03/10 04:06:33;;;;;;;2.70;2.50;;;;;;;14.44;56.91;93886.25;4989836;28;20228;-47
2023/03/10 04:09:01;;;;;;;2.90;2.60;;;;;;;14.45;56.74;93885.25;4988924;28;20197;-55
2023/03/10 04:11:28;;;;;;;3.17;2.80;;;;;;;14.46;56.71;93884.28;4989928;28;20193;-51
2023/03/10 04:13:54;;;;;;;3.60;2.93;;;;;;;14.36;56.46;93860.63;4989477;28;20196;-50
2023/03/10 04:16:21;;;;;;;3.03;2.73;;;;;;;14.49;56.64;93873.66;4990147;28;20185;-51
2023/03/10 04:18:48;;;;;;;3.63;2.87;;;;;;;14.52;56.56;93880.22;4989395;28;20193;-49
2023/03/10 04:21:16;;;;;;;3.63;2.73;;;;;;;14.53;56.61;93871.53;4989439;28;20201;-49
2023/03/10 04:23:43;;;;;;;5.37;3.20;;;;;;;14.53;56.59;93871.53;4989015;28;20194;-54
2023/03/10 04:26:11;;;;;;;3.57;2.30;;;;;;;14.54;56.65;93871.34;4989401;28;20592;-49
2023/03/10 04:28:38;;;;;;;3.03;2.73;;;;;;;14.55;56.57;93874.72;4989268;28;20588;-52
2023/03/10 04:31:11;;;;;;;2.93;2.37;;;;;;;14.55;56.49;93883.25;4989749;28;20196;-50
2023/03/10 04:33:37;;;;;;;4.13;3.30;;;;;;;14.54;56.71;93868.75;4989329;28;20196;-50
2023/03/10 04:36:04;;;;;;;4.57;3.00;;;;;;;14.57;56.60;93869.41;4989484;28;20195;-47
2023/03/10 04:38:31;;;;;;;3.23;2.90;;;;;;;14.54;56.39;93857.69;4989480;28;20189;-48
2023/03/10 04:41:00;;;;;;;3.97;3.10;;;;;;;14.55;56.71;93859.28;4989097;28;20201;-46
2023/03/10 04:43:28;;;;;;;3.80;3.40;;;;;;;14.55;56.79;93859.28;4989459;28;20681;-54
2023/03/10 04:45:55;;;;;;;5.63;3.10;;;;;;;14.52;56.70;93863.03;4992107;28;20624;-53
2023/03/10 04:48:22;;;;;;;3.77;3.37;;;;;;;14.54;56.72;93855.09;4993228;28;20197;-48
2023/03/10 04:50:55;;;;;;;5.07;3.37;;;;;;;14.49;56.98;93845.38;4992094;28;20188;-48
2023/03/10 04:53:22;;;;;;;4.37;3.57;;;;;;;14.52;56.70;93846.78;4993167;28;20197;-50
2023/03/10 04:55:50;;;;;;;4.80;3.80;;;;;;;14.50;56.93;93846.94;4992727;28;20227;-48
2023/03/10 04:58:17;;;;;;;4.83;3.80;;;;;;;14.49;56.76;93849.72;4992916;28;20582;-49
2023/03/10 05:00:45;;;;;;;5.13;3.60;;;;;;;14.48;57.02;93843.78;4992284;28;20193;-47
2023/03/10 05:03:12;;;;;;;6.77;4.10;;;;;;;14.47;56.89;93831.88;4993328;28;20185;-49
2023/03/10 05:05:39;;;;;;;5.00;3.83;;;;;;;14.45;56.92;93823.53;4992579;28;20284;-46
2023/03/10 05:08:07;;;;;;;4.67;3.83;;;;;;;14.43;56.81;93824.69;4992759;28;20716;-47
2023/03/10 05:10:34;;;;;;;5.40;3.43;;;;;;;14.46;56.89;93821.75;4991970;28;20256;-48
2023/03/10 05:13:01;;;;;;;4.87;3.53;;;;;;;14.44;56.90;93813.44;4992527;28;20185;-51
2023/03/10 05:15:28;;;;;;;3.97;3.50;;;;;;;14.49;57.05;93821.41;4992153;28;20655;-48
2023/03/10 05:17:56;;;;;;;4.60;3.17;;;;;;;14.48;56.89;93820.63;4992897;28;20271;-49
2023/03/10 05:20:23;;;;;;;8.73;3.80;;;;;;;14.50;57.05;93816.06;4992045;28;20197;-52
2023/03/10 05:22:49;;;;;;;5.33;3.43;;;;;;;14.52;56.94;93819.28;4991820;28;20203;-48
2023/03/10 05:25:17;;;;;;;4.77;3.50;;;;;;;14.55;57.13;93818.13;4991878;28;20205;-54
2023/03/10 05:27:44;;;;;;;5.10;3.57;;;;;;;14.56;57.18;93801.72;4992122;28;20200;-47
2023/03/10 05:30:14;;;;;;;3.93;3.53;;;;;;;14.62;56.97;93813.03;4991811;28;20193;-48
2023/03/10 05:32:41;;;;;;;6.13;3.97;;;;;;;14.64;56.91;93811.88;4982960;28;20185;-52
2023/03/10 05:35:10;;;;;;;8.40;4.37;;;;;;;14.68;56.90;93810.53;4992065;28;20201;-47
2023/03/10 05:37:38;;;;;;;4.83;3.80;;;;;;;14.74;57.07;93816.72;4992000;28;20296;-49
2023/03/10 05:40:06;;;;;;;4.20;3.70;;;;;;;14.80;56.99;93805.66;4992162;28;20277;-47
2023/03/10 05:42:33;;;;;;;5.33;3.67;;;;;;;14.90;56.72;93807.94;4991458;28;20624;-49
2023/03/10 05:45:00;;;;;;;4.97;3.93;;;;;;;15.04;56.62;93801.91;4991948;28;20197;-47
2023/03/10 05:47:27;;;;;;;5.50;3.93;;;;;;;15.17;56.33;93802.00;4991865;28;20648;-47
2023/03/10 05:49:54;;;;;;;5.23;3.70;;;;;;;15.31;56.13;93798.53;4992009;28;20193;-49
2023/03/10 05:52:22;;;;;;;6.67;4.20;;;;;;;15.40;55.96;93788.06;4991575;28;20185;-48
2023/03/10 05:54:49;;;;;;;6.30;4.33;;;;;;;15.55;55.82;93789.56;4992166;28;20650;-49
2023/03/10 05:57:16;;;;;;;5.23;2.10;;;;;;;16.02;78.09;93795.75;4991464;28;20190;-55
2023/03/10 05:59:43;;;;;;;3.43;2.53;;;;;;;16.61;76.92;93796.88;4991560;28;20196;-56
2023/03/10 06:02:10;;;;;;;5.10;2.33;;;;;;;17.15;75.39;93793.38;4991620;28;20197;-50
2023/03/10 06:04:37;;;;;;;4.50;2.13;;;;;;;17.65;73.08;93793.66;4990808;28;20193;-53
2023/03/10 06:07:04;;;;;;;8.87;2.73;;;;;;;18.10;71.55;93800.72;4992200;28;20232;-54
2023/03/10 06:09:33;;;;;;;5.97;2.27;;;;;;;18.52;70.54;93799.31;4991916;28;20201;-53
2023/03/10 06:12:01;;;;;;;5.50;2.37;;;;;;;18.86;68.86;93805.09;4991762;28;20189;-50
2023/03/10 06:14:27;;;;;;;4.93;2.40;;;;;;;19.18;67.57;93817.03;4991864;28;20271;-54
2023/03/10 06:16:55;;;;;;;3.47;2.23;;;;;;;19.34;66.49;93802.72;4992312;28;20201;-52
2023/03/10 06:19:23;;;;;;;5.30;2.83;;;;;;;19.42;65.07;93792.06;4991438;28;20185;-52
2023/03/10 06:21:50;;;;;;;3.50;2.77;;;;;;;19.60;64.00;93817.22;4991602;28;20193;-53
2023/03/10 06:24:17;;;;;;;10.47;3.30;;;;;;;19.60;63.25;93811.25;4991519;28;20203;-54
2023/03/10 06:26:46;;;;;;;5.27;3.10;;;;;;;19.55;62.33;93814.50;4991313;28;20213;-56
2023/03/10 06:29:12;;;;;;;7.93;3.43;;;;;;;19.44;61.55;93820.41;4998701;28;20201;-53
2023/03/10 06:31:39;;;;;;;8.83;3.70;;;;;;;19.32;61.09;93817.69;4991170;28;20197;-53
2023/03/10 06:34:06;;;;;;;6.43;2.80;;;;;;;19.20;60.70;93809.81;4991403;28;20192;-52
2023/03/10 06:36:33;;;;;;;6.67;3.10;;;;;;;19.08;60.22;93810.72;4979971;28;20197;-51
2023/03/10 06:39:00;;;;;;;6.23;3.03;;;;;;;19.00;59.99;93819.56;4977588;28;21325;-52
2023/03/10 06:41:27;;;;;;;8.23;3.40;;;;;;;18.90;59.75;93812.25;4986708;28;20307;-53
2023/03/10 06:43:56;;;;;;;4.00;3.03;;;;;;;18.77;59.44;93809.75;4987202;28;20193;-49
2023/03/10 06:46:24;;;;;;;6.90;3.70;;;;;;;18.74;59.27;93816.16;4990089;28;20244;-53
2023/03/10 06:48:51;;;;;;;8.77;3.43;;;;;;;18.70;59.04;93832.31;4990009;28;20189;-51
2023/03/10 06:51:20;;;;;;;10.57;3.83;;;;;;;18.60;58.84;93818.97;4988536;28;20205;-56
2023/03/10 06:53:48;;;;;;;3.77;3.07;;;;;;;18.56;58.85;93816.81;4988907;28;20201;-55
2023/03/10 06:56:16;;;;;;;3.63;3.30;;;;;;;18.54;58.35;93825.78;4989784;28;20244;-50
2023/03/10 06:58:44;;;;;;;5.47;3.37;;;;;;;18.49;58.18;93821.25;4988186;28;20255;-49
2023/03/10 07:01:23;;;;;;;7.10;3.70;;;;;;;18.43;58.21;93826.44;4988106;28;20201;-53
2023/03/10 07:03:50;;;;;;;6.70;3.80;;;;;;;18.37;58.15;93817.72;4987997;28;20617;-51
2023/03/10 07:06:16;;;;;;;6.53;3.77;;;;;;;18.35;57.87;93829.28;4987658;28;20593;-53
2023/03/10 07:08:43;;;;;;;9.07;4.47;;;;;;;18.32;57.96;93821.94;4988966;28;20259;-51
2023/03/10 07:11:10;;;;;;;5.97;3.60;;;;;;;18.33;57.87;93828.69;4990105;28;20200;-49
2023/03/10 07:13:37;;;;;;;4.40;3.50;;;;;;;18.33;57.66;93810.56;4988325;28;20209;-57
2023/03/10 07:16:04;;;;;;;4.20;3.37;;;;;;;18.35;57.43;93804.19;4988500;28;20207;-47
2023/03/10 07:18:33;;;;;;;10.33;3.80;;;;;;;18.34;57.01;93787.06;4987874;28;20189;-49
2023/03/10 07:21:00;;;;;;;5.43;4.00;;;;;;;18.46;57.02;93806.13;4986229;28;20686;-52
2023/03/10 07:23:27;;;;;;;6.70;4.10;;;;;;;18.53;56.76;93808.69;4989652;28;20224;-47
2023/03/10 07:25:55;;;;;;;9.03;4.17;;;;;;;18.55;56.76;93793.72;4984251;28;20224;-52
2023/03/10 07:28:23;;;;;;;5.90;3.93;;;;;;;18.68;56.58;93800.63;4989760;28;20185;-47
2023/03/10 07:30:49;;;;;;;9.10;3.70;;;;;;;18.72;56.40;93794.03;4988270;28;20197;-45
2023/03/10 07:33:16;;;;;;;5.43;3.90;;;;;;;18.79;56.20;93794.81;4989410;28;20205;-45
2023/03/10 07:35:45;;;;;;;6.93;3.90;;;;;;;18.85;56.00;93801.72;4986934;28;20650;-45
2023/03/10 07:38:11;;;;;;;5.63;3.77;;;;;;;18.94;55.87;93804.84;4989208;28;20683;-45
2023/03/10 07:40:39;;;;;;;8.60;4.00;;;;;;;19.00;55.78;93789.25;4988852;28;20197;-47
2023/03/10 07:43:06;;;;;;;5.23;3.83;;;;;;;19.20;55.52;93783.91;4984017;28;20680;-46
2023/03/10 07:45:34;;;;;;;5.97;4.00;;;;;;;19.41;55.21;93780.13;4988761;28;20196;-46
2023/03/10 07:48:01;;;;;;;4.40;3.80;;;;;;;19.60;55.07;93769.75;4989166;28;20197;-47
2023/03/10 07:50:28;;;;;;;4.87;3.77;;;;;;;19.80;55.08;93765.19;4989181;28;20267;-46
2023/03/10 07:52:56;;;;;;;4.37;3.10;;;;;;;19.97;54.86;93766.19;4986695;28;20293;-46
2023/03/10 07:55:23;;;;;;;7.67;3.60;;;;;;;20.12;54.78;93767.59;4985902;28;20224;-47
2023/03/10 07:57:50;;;;;;;9.00;3.73;;;;;;;20.26;54.56;93756.84;5001455;28;20659;-47
2023/03/10 08:00:18;;;;;;;5.47;3.90;;;;;;;20.35;54.32;93752.13;4991438;28;20267;-47
2023/03/10 08:02:45;;;;;;;8.40;3.87;;;;;;;20.46;54.01;93747.97;4981237;28;20620;-51
2023/03/10 08:05:13;;;;;;;4.27;3.77;;;;;;;20.47;54.00;93739.97;4989052;28;20189;-48
2023/03/10 08:07:40;;;;;;;7.10;3.80;;;;;;;20.58;53.71;93755.84;4987849;28;20300;-47
2023/03/10 08:10:10;;;;;;;6.25;4.05;;;;;;;20.61;53.59;93740.59;4988656;28;20193;-46
2023/03/10 08:12:37;;;;;;;6.23;3.77;;;;;;;20.63;53.64;93740.38;4988435;28;20197;-46
2023/03/10 08:15:05;;;;;;;7.30;4.30;;;;;;;20.64;53.50;93731.56;4988510;28;20209;-51
2023/03/10 08:17:32;;;;;;;4.30;3.77;;;;;;;20.64;53.29;93734.16;4988709;28;20325;-47
2023/03/10 08:19:59;;;;;;;6.57;4.23;;;;;;;20.61;53.38;93732.00;4987706;28;20214;-52
2023/03/10 08:22:27;;;;;;;5.70;3.77;;;;;;;20.60;53.23;93727.84;4989237;28;20192;-49
2023/03/10 08:24:54;;;;;;;6.93;4.35;;;;;;;20.58;53.16;93709.88;4999994;28;20181;-55
2023/03/10 08:27:23;;;;;;;6.87;3.73;;;;;;;20.66;52.93;93708.75;4992126;28;20228;-49
2023/03/10 08:29:50;;;;;;;4.40;3.77;;;;;;;20.70;52.82;93702.88;4987630;28;20200;-48
2023/03/10 08:32:16;;;;;;;6.73;4.40;;;;;;;20.77;52.77;93700.97;4982882;28;20197;-49
2023/03/10 08:34:44;;;;;;;5.43;3.90;;;;;;;20.87;52.71;93691.81;4991451;28;20633;-48
2023/03/10 08:37:11;;;;;;;7.33;3.80;;;;;;;20.92;52.52;93687.53;4978707;28;20185;-49
2023/03/10 08:39:38;;;;;;;4.87;4.07;;;;;;;21.05;52.50;93697.69;4990292;28;20189;-46
2023/03/10 08:42:05;;;;;;;6.43;3.63;;;;;;;21.16;52.21;93696.13;4991713;28;20197;-51
2023/03/10 08:44:33;;;;;;;3.92;3.50;;;;;;;21.36;51.81;93684.59;4988895;28;20181;-48
2023/03/10 08:47:00;;;;;;;7.43;3.33;;;;;;;21.67;51.58;93684.16;4991413;28;20224;-51
2023/03/10 08:49:28;;;;;;;4.38;3.40;;;;;;;21.92;51.21;93693.50;4989535;28;20186;-50
2023/03/10 08:51:54;;;;;;;4.90;3.22;;;;;;;22.08;51.03;93691.97;4990926;28;20200;-50
2023/03/10 08:54:23;;;;;;;5.38;3.45;;;;;;;22.20;51.15;93677.13;4990975;28;20256;-48
2023/03/10 08:56:50;;;;;;;5.43;3.35;;;;;;;22.39;50.74;93664.66;4989160;28;20240;-48
2023/03/10 08:59:18;;;;;;;8.10;3.47;;;;;;;22.61;50.55;93662.94;4990303;28;20280;-46
2023/03/10 09:01:46;;;;;;;5.07;3.30;;;;;;;22.87;50.12;93671.13;4989236;28;20888;-50
2023/03/10 09:04:13;;;;;;;5.15;3.25;;;;;;;22.97;49.89;93663.47;4989992;28;20581;-47
2023/03/10 09:06:40;;;;;;;4.30;2.95;;;;;;;22.99;49.99;93643.97;4990197;28;20279;-49
2023/03/10 09:09:09;;;;;;;3.22;2.35;;;;;;;23.19;50.70;93656.50;4991064;28;20186;-46
2023/03/10 09:11:38;;;;;;;3.20;2.25;;;;;;;23.30;51.56;93646.97;4990418;28;20650;-49
2023/03/10 09:14:05;;;;;;;3.67;2.33;;;;;;;23.40;51.62;93651.53;4989455;28;20640;-49
2023/03/10 09:16:32;;;;;;;6.70;2.47;;;;;;;23.42;51.87;93652.88;4986546;28;20205;-51
2023/03/10 09:19:01;;;;;;;4.50;2.75;;;;;;;23.43;51.35;93643.22;4991222;28;20272;-53
2023/03/10 09:21:30;;;;;;;2.83;2.45;;;;;;;23.40;51.54;93636.69;4991418;28;20193;-53
2023/03/10 09:23:57;;;;;;;3.78;2.33;;;;;;;23.36;51.30;93643.44;4992003;28;20287;-54
2023/03/10 09:26:24;;;;;;;5.15;2.85;;;;;;;23.34;50.90;93639.47;4991781;28;20201;-50
2023/03/10 09:28:51;;;;;;;5.97;2.72;;;;;;;23.31;50.86;93632.13;4991402;28;20746;-54
2023/03/10 09:31:21;;;;;;;8.52;2.22;;;;;;;23.29;50.89;93632.38;4990522;28;20614;-55
2023/03/10 09:33:48;;;;;;;5.90;2.78;;;;;;;23.19;50.87;93629.63;4991635;28;20731;-53
2023/03/10 09:36:16;;;;;;;3.00;2.72;;;;;;;23.19;50.69;93629.63;4992060;28;20276;-52
2023/03/10 09:38:43;;;;;;;2.80;2.28;;;;;;;23.12;50.45;93631.63;4991536;28;20189;-53
2023/03/10 09:41:26;;;;;;;3.20;2.38;;;;;;;23.02;50.61;93629.69;4989763;28;20200;-53
2023/03/10 09:44:00;;;;;;;2.72;2.53;;;;;;;22.91;50.57;93620.91;4992691;28;20196;-47
2023/03/10 09:46:38;;;;;;;5.18;3.22;;;;;;;22.85;50.43;93619.25;4991121;28;20224;-54
2023/03/10 09:49:12;;;;;;;3.50;2.45;;;;;;;22.75;50.19;93598.22;4989466;28;20199;-53
2023/03/10 09:51:46;;;;;;;4.53;2.78;;;;;;;22.68;50.36;93608.06;4990798;28;20196;-55
2023/03/10 09:54:33;;;;;;;3.20;2.47;;;;;;;22.61;50.09;93612.63;4991396;28;20204;-54
2023/03/10 09:57:03;;;;;;;3.72;2.60;;;;;;;22.51;50.24;93611.47;4990896;28;20720;-52
2023/03/10 09:59:34;;;;;;;3.45;2.63;;;;;;;22.41;50.17;93607.91;4991367;28;20584;-54
2023/03/10 10:02:14;;;;;;;3.47;2.65;;;;;;;22.27;50.10;93608.22;4990959;28;20216;-54
2023/03/10 10:04:42;;;;;;;3.88;2.70;;;;;;;22.16;50.43;93600.50;4991322;28;20303;-53
2023/03/10 10:07:15;;;;;;;5.50;2.72;;;;;;;22.04;50.16;93597.91;4990765;28;20271;-53
2023/03/10 10:09:47;;;;;;;3.95;2.53;;;;;;;21.90;50.36;93588.84;4991171;28;20212;-51
2023/03/10 10:12:15;;;;;;;4.15;2.67;;;;;;;21.82;50.13;93579.59;4990563;28;20708;-57
2023/03/10 10:14:44;;;;;;;3.47;2.90;;;;;;;21.69;50.22;93572.84;4991040;28;20195;-51
2023/03/10 10:17:24;;;;;;;5.68;2.80;;;;;;;21.60;50.51;93573.47;4990705;28;20205;-50
2023/03/10 10:19:53;;;;;;;3.55;2.90;;;;;;;21.49;50.57;93583.66;4991040;28;20248;-49
2023/03/10 10:22:25;;;;;;;5.60;2.53;;;;;;;21.38;50.39;93568.91;4988288;28;20705;-49
2023/03/10 10:25:17;;;;;;;5.72;3.13;;;;;;;21.29;50.53;93575.47;4990377;28;20554;-54
2023/03/10 10:27:46;;;;;;;4.32;2.58;;;;;;;21.17;50.43;93572.91;4989512;28;20335;-53
2023/03/10 10:30:28;;;;;;;4.05;2.75;;;;;;;21.13;50.57;93571.78;4990676;28;20196;-53
2023/03/10 10:32:57;;;;;;;4.93;2.90;;;;;;;21.05;50.67;93570.31;4990538;28;20205;-50
2023/03/10 10:35:26;;;;;;;3.58;2.88;;;;;;;20.98;50.61;93572.28;4990230;28;20214;-54
2023/03/10 10:38:01;;;;;;;4.07;3.10;;;;;;;20.90;50.68;93564.81;4990425;28;20225;-49
2023/03/10 10:40:32;;;;;;;4.32;3.42;;;;;;;20.84;50.68;93567.53;4989838;28;20193;-49
2023/03/10 10:42:59;;;;;;;6.40;3.45;;;;;;;20.69;50.65;93560.22;4990016;28;20192;-47
2023/03/10 10:45:29;;;;;;;5.32;3.28;;;;;;;20.68;50.98;93569.00;4987360;28;20189;-46
2023/03/10 10:47:57;;;;;;;4.30;3.00;;;;;;;20.58;51.02;93558.41;4987270;28;20881;-50
2023/03/10 10:50:26;;;;;;;4.35;3.22;;;;;;;20.56;50.96;93563.06;4989659;28;20678;-48
2023/03/10 10:53:17;;;;;;;3.92;3.03;;;;;;;20.47;50.95;93559.97;4990104;28;20196;-49
2023/03/10 10:55:46;;;;;;;4.30;3.10;;;;;;;20.45;51.15;93565.38;4989108;28;20232;-47
2023/03/10 10:58:27;;;;;;;4.55;3.50;;;;;;;20.34;51.01;93542.03;4989032;28;20193;-50
2023/03/10 11:00:57;;;;;;;3.60;3.30;;;;;;;20.33;51.29;93548.22;4989647;28;20227;-53
2023/03/10 11:03:27;;;;;;;3.77;3.10;;;;;;;20.28;51.21;93547.09;4989821;28;20205;-48
2023/03/10 11:05:54;;;;;;;5.93;3.88;;;;;;;20.19;51.43;93535.47;4989597;28;20204;-49
2023/03/10 11:08:36;;;;;;;5.33;4.00;;;;;;;20.20;51.24;93546.63;4989885;28;20735;-55
2023/03/10 11:11:15;;;;;;;7.40;3.77;;;;;;;20.15;51.61;93542.13;4990044;28;20656;-54
2023/03/10 11:13:54;;;;;;;6.00;3.90;;;;;;;20.11;51.21;93516.84;4988898;28;20197;-53
2023/03/10 11:16:26;;;;;;;6.47;4.00;;;;;;;20.05;51.72;93506.34;4987848;28;20200;-52
2023/03/10 11:19:00;;;;;;;4.37;3.17;;;;;;;20.02;51.55;93506.00;4989538;28;20216;-53
2023/03/10 11:21:31;;;;;;;7.17;3.40;;;;;;;19.98;51.76;93486.69;4989710;28;20207;-54
2023/03/10 11:24:11;;;;;;;8.80;3.93;;;;;;;19.92;51.49;93474.63;4989466;28;20331;-54
2023/03/10 11:26:50;;;;;;;4.47;3.57;;;;;;;19.90;51.85;93474.84;4987608;28;20208;-51
2023/03/10 11:29:30;;;;;;;6.37;3.23;;;;;;;19.85;51.76;93466.16;4989614;28;20203;-51
2023/03/10 11:32:06;;;;;;;4.63;3.33;;;;;;;19.87;51.90;93466.75;4987981;28;20216;-48
2023/03/10 11:34:40;;;;;;;5.43;3.27;;;;;;;19.85;51.86;93472.13;4989888;28;20215;-54
2023/03/10 11:37:14;;;;;;;5.73;3.60;;;;;;;19.84;52.00;93475.75;4987678;28;20665;-53
2023/03/10 11:39:53;;;;;;;4.20;3.80;;;;;;;19.82;52.17;93493.34;4989607;28;20648;-56
2023/03/10 11:42:29;;;;;;;4.63;3.40;;;;;;;19.76;52.06;93486.44;4989477;28;20199;-47